• Join FlightAware (Why Join?)
  • Login
  • US Flag 
07:01PM EDT


 

Airport Tracker/Info


-or-


 

Live Flight TrackerFlight Track Log ✈ N502QS ✈ 22-Jul-2013 ✈ KCZT - KSAT

Flight Track Log - Related Links

Times and Time Zones

All times are in EDT time to prevent confusion due to time zone crossing. See the N502QS flight status page for this flight to view local times or setup timezone preferences in your user account.

Time Position Orientation Groundspeed Altitude Reporting Facility
EDT Latitude Longitude Course Direction KTS MPH feet Rate Location/Type
05:30PM 28.5894 -99.6658 46° Northeast 273 314 3,400  Level Houston Center
05:31PM 28.6472 -99.6106 40° Northeast 273 314 7,400 3,600 Climbing Houston Center
05:32PM 28.7061 -99.5433 45° Northeast 298 343 10,900 1,740 Climbing Houston Center
05:33PM 28.7469 -99.4078 71° East 383 441 11,000  Climbing Houston Center
05:34PM 28.7627 -99.5134 47° Northeast  Level FlightAware Approximate
05:34PM 28.7833 -99.2958 70° East 382 440 11,000  Level Houston Center
05:35PM 28.8219 -99.1808 69° East 388 447 10,900  Descending Houston Center
05:36PM 28.8675 -99.0456 69° East 400 460 11,000  Climbing Houston Center
05:37PM 28.9053 -98.9378 68° East 393 452 11,000 -420 Level Houston Center
05:38PM 28.9789 -98.8375 50° Northeast 384 442 10,200 -540 Descending Houston Center
05:39PM 29.0589 -98.7658 38° Northeast 366 421 10,000 -240 Descending Houston Center
05:40PM 29.0997 -98.7297 38° Northeast 359 413 9,900 -540 Descending Houston Center
05:40PM 29.1389 -98.7025 31° Northeast 350 403 9,500 -1,200 Descending Houston Center
05:41PM 29.1794 -98.6822 24° Northeast 306 352 8,700 -1,800 Descending Houston Center
05:41PM 29.2247 -98.6800 North 302 348 7,700 -1,800 Descending Houston Center
05:42PM 29.3067 -98.6847 357° North 295 339 6,000 -840 Descending Houston Center
05:43PM 29.3828 -98.6892 357° North 251 289 6,000 -480 Level Houston Center
05:44PM 29.4478 -98.6931 357° North 235 270 5,100 -1,020 Descending Houston Center
05:45PM 29.5125 -98.6975 357° North 232 267 4,000 -540 Descending Houston Center
05:46PM 29.5736 -98.6711 21° North 227 261 4,000  Level Houston Center
05:47PM 29.6183 -98.6358 34° Northeast 198 228 4,000 -300 Level Houston Center
05:48PM 29.6208 -98.5914 86° East 149 171 3,400 -780 Descending Houston Center
05:49PM 29.5978 -98.5556 126° Southeast 132 152 2,400 -840 Descending Houston Center
05:51PM 29.5736 -98.5250 132° Southeast 129 148 1,800 -660 Descending Houston Center
05:52PM 29.5508 -98.4942 130° Southeast 120 138 1,100 -720 Descending Houston Center